Time;durP1;ratioP1;P1;durP2;ratioP2;P2;SDS_P1;SDS_P2;PMS_P1;PMS_P2;Temp;Humidity;BMP_temperature;BMP_pressure;BME280_temperature;BME280_humidity;BME280_pressure;Samples;Min_cycle;Max_cycle;Signal;HPM_P1;HPM_P2
2022/03/10 00:01:56;;;;;;;1.23;1.23;;;3.00;99.90;;;;;;6287243;28;20274;-74
2022/03/10 00:05:02;;;;;;;1.67;1.63;;;3.00;99.90;;;;;;6287664;28;20282;-74
2022/03/10 00:08:08;;;;;;;2.27;1.40;;;3.00;99.90;;;;;;6282606;28;20316;-75
2022/03/10 00:11:14;;;;;;;1.53;1.53;;;3.00;99.90;;;;;;6238833;28;20267;-74
2022/03/10 00:14:21;;;;;;;1.70;1.70;;;2.90;99.90;;;;;;6238009;28;20312;-74
2022/03/10 00:17:26;;;;;;;2.00;1.90;;;2.90;99.90;;;;;;6237161;28;20295;-75
2022/03/10 00:20:31;;;;;;;1.93;1.83;;;2.90;99.90;;;;;;6238145;28;20271;-75
2022/03/10 00:23:37;;;;;;;4.13;1.60;;;2.90;99.90;;;;;;6237670;28;20302;-75
2022/03/10 00:26:43;;;;;;;1.70;1.60;;;2.90;99.90;;;;;;6238693;28;20275;-74
2022/03/10 00:29:49;;;;;;;1.40;1.40;;;2.90;99.90;;;;;;6237495;28;20304;-75
2022/03/10 00:32:55;;;;;;;1.97;1.60;;;2.90;99.90;;;;;;6237641;28;20579;-75
2022/03/10 00:36:00;;;;;;;1.57;1.57;;;2.90;99.90;;;;;;6237188;28;20273;-74
2022/03/10 00:39:06;;;;;;;1.70;1.60;;;2.80;99.90;;;;;;6237882;28;20292;-74
2022/03/10 00:42:12;;;;;;;1.63;1.53;;;2.80;99.90;;;;;;6237713;28;20273;-74
2022/03/10 00:45:20;;;;;;;1.70;1.70;;;2.80;99.90;;;;;;6238274;28;20369;-74
2022/03/10 00:48:28;;;;;;;1.67;1.67;;;2.80;99.90;;;;;;6237204;28;20303;-75
2022/03/10 00:51:34;;;;;;;1.70;1.60;;;2.70;99.90;;;;;;6237366;28;20280;-74
2022/03/10 00:54:39;;;;;;;1.70;1.70;;;2.70;99.90;;;;;;6237875;28;20302;-74
2022/03/10 00:57:44;;;;;;;3.13;1.90;;;2.70;99.90;;;;;;6237658;28;20306;-74
2022/03/10 01:00:52;;;;;;;2.07;2.07;;;2.60;99.90;;;;;;6237347;28;20593;-74
2022/03/10 01:03:57;;;;;;;2.23;2.13;;;2.60;99.90;;;;;;6236801;28;20417;-75
2022/03/10 01:07:03;;;;;;;2.00;2.00;;;2.60;99.90;;;;;;6236805;28;20272;-76
2022/03/10 01:10:09;;;;;;;2.57;2.47;;;2.70;99.90;;;;;;6247443;28;20314;-75
2022/03/10 01:13:19;;;;;;;2.10;2.00;;;2.70;99.90;;;;;;6261029;28;20612;-76
2022/03/10 01:16:26;;;;;;;2.40;2.00;;;2.70;99.90;;;;;;6261241;28;20269;-76
2022/03/10 01:19:31;;;;;;;2.13;1.80;;;2.70;99.90;;;;;;6260733;28;20298;-75
2022/03/10 01:22:37;;;;;;;2.20;2.10;;;2.70;99.90;;;;;;6260596;28;20466;-75
2022/03/10 01:25:42;;;;;;;1.97;1.93;;;2.70;99.90;;;;;;6261703;28;20278;-75
2022/03/10 01:28:48;;;;;;;2.40;2.30;;;2.70;99.90;;;;;;6261128;28;20308;-75
2022/03/10 01:31:54;;;;;;;2.03;1.93;;;2.70;99.90;;;;;;6263733;28;20275;-75
2022/03/10 01:35:01;;;;;;;1.90;1.90;;;2.70;99.90;;;;;;6266042;28;20299;-75
2022/03/10 01:38:06;;;;;;;3.30;2.00;;;2.70;99.90;;;;;;6266306;28;20298;-75
2022/03/10 01:41:13;;;;;;;2.70;2.20;;;2.70;99.90;;;;;;6267022;28;20274;-75
2022/03/10 01:44:20;;;;;;;2.07;1.90;;;2.70;99.90;;;;;;6265776;28;20296;-75
2022/03/10 01:47:27;;;;;;;1.63;1.63;;;2.60;99.90;;;;;;6265880;28;20608;-76
2022/03/10 01:50:33;;;;;;;2.00;1.90;;;2.70;99.90;;;;;;6267103;28;20273;-75
2022/03/10 01:53:38;;;;;;;1.40;1.40;;;2.70;99.90;;;;;;6266197;28;20301;-76
2022/03/10 01:56:43;;;;;;;1.30;1.30;;;2.60;99.90;;;;;;6265992;28;20271;-75
2022/03/10 01:59:48;;;;;;;1.30;1.30;;;2.50;99.90;;;;;;6265611;28;20312;-75
2022/03/10 02:02:55;;;;;;;1.40;1.40;;;2.60;99.90;;;;;;6265668;28;20299;-75
2022/03/10 02:06:01;;;;;;;1.10;1.10;;;2.60;99.90;;;;;;6266026;28;20543;-75
2022/03/10 02:12:29;;;;;;;1.17;1.17;;;2.60;99.90;;;;;;6240791;28;20299;-75
2022/03/10 02:19:00;;;;;;;1.40;1.30;;;2.60;99.90;;;;;;6223313;28;20299;-75
2022/03/10 02:22:09;;;;;;;1.20;1.20;;;2.70;99.90;;;;;;6240577;28;20272;-76
2022/03/10 02:25:17;;;;;;;1.20;1.20;;;2.70;99.90;;;;;;6240402;28;20278;-75
2022/03/10 02:28:22;;;;;;;1.20;1.20;;;2.70;99.90;;;;;;6240846;28;20296;-75
2022/03/10 02:31:27;;;;;;;1.20;1.20;;;2.60;99.90;;;;;;6240735;28;20406;-75
2022/03/10 02:34:32;;;;;;;1.20;1.20;;;2.70;99.90;;;;;;6239650;28;20306;-75
2022/03/10 02:37:40;;;;;;;1.50;1.50;;;2.80;99.90;;;;;;6239919;28;20288;-75
2022/03/10 02:40:45;;;;;;;1.70;1.30;;;2.70;99.90;;;;;;6241116;28;20549;-75
2022/03/10 02:43:51;;;;;;;1.40;1.30;;;2.80;99.90;;;;;;6239957;28;20298;-75
2022/03/10 02:46:59;;;;;;;1.40;1.40;;;2.80;99.90;;;;;;6239315;28;20284;-76
2022/03/10 02:50:06;;;;;;;1.20;1.20;;;2.80;99.90;;;;;;6240423;28;20280;-75
2022/03/10 02:53:16;;;;;;;1.20;1.20;;;2.70;99.90;;;;;;6239639;28;20598;-75
2022/03/10 02:56:21;;;;;;;1.13;1.13;;;2.70;99.90;;;;;;6240290;28;20299;-75
2022/03/10 02:59:27;;;;;;;1.73;1.63;;;2.70;99.90;;;;;;6239994;28;20601;-76
2022/03/10 03:02:32;;;;;;;1.47;1.47;;;2.80;99.90;;;;;;6238815;28;20302;-75
2022/03/10 03:05:38;;;;;;;1.30;1.30;;;2.80;99.90;;;;;;6240187;28;20278;-75
2022/03/10 03:08:45;;;;;;;1.13;1.13;;;2.80;99.90;;;;;;6238719;28;20574;-75
2022/03/10 03:11:51;;;;;;;1.43;1.20;;;2.80;99.90;;;;;;6239499;28;20274;-76
2022/03/10 03:14:56;;;;;;;1.40;1.40;;;2.80;99.90;;;;;;6238034;28;20400;-75
2022/03/10 03:18:01;;;;;;;1.20;1.20;;;2.80;99.90;;;;;;6239134;28;20592;-75
2022/03/10 03:21:07;;;;;;;1.50;1.43;;;2.80;99.90;;;;;;6239618;28;20274;-75
2022/03/10 03:24:14;;;;;;;1.37;1.37;;;2.80;99.90;;;;;;6239130;28;20303;-76
2022/03/10 03:27:19;;;;;;;1.50;1.50;;;2.80;99.90;;;;;;6239042;28;20296;-75
2022/03/10 03:30:26;;;;;;;2.67;1.60;;;2.80;99.90;;;;;;6239492;28;20273;-76
2022/03/10 03:33:32;;;;;;;1.40;1.40;;;2.70;99.90;;;;;;6238488;28;20301;-75
2022/03/10 03:36:38;;;;;;;1.20;1.20;;;2.80;99.90;;;;;;6239155;28;20295;-75
2022/03/10 03:39:45;;;;;;;1.37;1.30;;;2.80;99.90;;;;;;6238435;28;20304;-75
2022/03/10 03:42:50;;;;;;;1.53;1.53;;;2.80;99.90;;;;;;6238058;28;20293;-76
2022/03/10 03:45:56;;;;;;;1.40;1.40;;;2.80;99.90;;;;;;6239393;28;20443;-75
2022/03/10 03:49:01;;;;;;;1.30;1.30;;;2.70;99.90;;;;;;6238438;28;20306;-76
2022/03/10 03:52:07;;;;;;;1.27;1.27;;;2.80;99.90;;;;;;6238331;28;20275;-76
2022/03/10 03:55:14;;;;;;;1.27;1.27;;;2.80;99.90;;;;;;6238402;28;20274;-75
2022/03/10 03:58:20;;;;;;;1.30;1.30;;;2.80;99.90;;;;;;6238374;28;20298;-75
2022/03/10 04:01:26;;;;;;;1.33;1.33;;;2.80;99.90;;;;;;6248261;28;20278;-76
2022/03/10 04:04:31;;;;;;;1.30;1.30;;;2.80;99.90;;;;;;6231082;28;20483;-76
2022/03/10 04:07:37;;;;;;;1.30;1.30;;;2.70;99.90;;;;;;6238466;28;20294;-75
2022/03/10 04:10:43;;;;;;;1.50;1.50;;;2.80;99.90;;;;;;6254850;28;20308;-75
2022/03/10 04:13:49;;;;;;;1.40;1.40;;;2.80;99.90;;;;;;6262989;28;20458;-75
2022/03/10 04:16:55;;;;;;;1.57;1.50;;;2.80;99.90;;;;;;6262069;28;20291;-76
2022/03/10 04:20:00;;;;;;;1.50;1.50;;;2.80;99.90;;;;;;6262170;28;20271;-76
2022/03/10 04:23:06;;;;;;;1.50;1.50;;;2.80;99.90;;;;;;6262138;28;20299;-76
2022/03/10 04:26:14;;;;;;;1.33;1.33;;;2.80;99.90;;;;;;6262586;28;20278;-75
2022/03/10 04:29:20;;;;;;;1.50;1.50;;;2.80;99.90;;;;;;6262064;28;20301;-75
2022/03/10 04:32:25;;;;;;;1.40;1.40;;;2.80;99.90;;;;;;6262508;28;20291;-75
2022/03/10 04:35:30;;;;;;;1.40;1.40;;;2.80;99.90;;;;;;6262712;28;20271;-76
2022/03/10 04:38:35;;;;;;;1.60;1.60;;;2.70;99.90;;;;;;6262479;28;20305;-75
2022/03/10 04:41:43;;;;;;;1.50;1.50;;;2.70;99.90;;;;;;6262654;28;20299;-75
2022/03/10 04:44:48;;;;;;;1.53;1.53;;;2.80;99.90;;;;;;6262702;28;20301;-75
2022/03/10 04:47:54;;;;;;;1.70;1.70;;;2.80;99.90;;;;;;6261515;28;20291;-76
2022/03/10 04:50:59;;;;;;;1.60;1.50;;;2.70;99.90;;;;;;6262850;28;20300;-75
2022/03/10 04:54:04;;;;;;;3.57;2.00;;;2.70;99.90;;;;;;6261971;28;20408;-75
2022/03/10 04:57:14;;;;;;;1.70;1.70;;;2.70;99.90;;;;;;6261922;28;20297;-75
2022/03/10 05:00:19;;;;;;;2.50;1.90;;;2.70;99.90;;;;;;6261374;28;20272;-75
2022/03/10 05:03:25;;;;;;;1.77;1.77;;;2.70;99.90;;;;;;6261185;28;20291;-76
2022/03/10 05:06:32;;;;;;;2.23;2.03;;;2.70;99.90;;;;;;6260891;28;20275;-75
2022/03/10 05:09:37;;;;;;;1.90;1.80;;;2.70;99.90;;;;;;6261091;28;20306;-76
2022/03/10 05:12:52;;;;;;;1.60;1.60;;;2.60;99.90;;;;;;6261140;28;20289;-75
2022/03/10 05:15:57;;;;;;;1.90;1.90;;;2.70;99.90;;;;;;6261658;28;20275;-75
2022/03/10 05:19:02;;;;;;;1.80;1.80;;;2.70;99.90;;;;;;6261633;28;20305;-75
2022/03/10 05:22:08;;;;;;;2.10;2.00;;;2.70;99.90;;;;;;6261470;28;20292;-75
2022/03/10 05:25:14;;;;;;;1.93;1.93;;;2.60;99.90;;;;;;6261584;28;20461;-74
2022/03/10 05:28:35;;;;;;;2.00;2.00;;;2.70;99.90;;;;;;6261677;28;20298;-75
2022/03/10 05:31:40;;;;;;;2.53;1.83;;;2.70;99.90;;;;;;6261273;28;20588;-75
2022/03/10 05:34:46;;;;;;;1.70;1.70;;;2.80;99.90;;;;;;6261629;28;20439;-76
2022/03/10 05:37:51;;;;;;;1.70;1.70;;;2.80;99.90;;;;;;6260612;28;20297;-76
2022/03/10 05:40:56;;;;;;;1.70;1.70;;;2.80;99.90;;;;;;6261054;28;20271;-76
2022/03/10 05:44:03;;;;;;;1.80;1.80;;;2.70;99.90;;;;;;6261143;28;20315;-76
2022/03/10 05:47:11;;;;;;;1.67;1.60;;;2.80;99.90;;;;;;6261019;28;20308;-75
2022/03/10 05:50:17;;;;;;;2.60;1.70;;;2.80;99.90;;;;;;6261578;28;20551;-75
2022/03/10 05:53:22;;;;;;;1.60;1.60;;;2.80;99.90;;;;;;6260645;28;20295;-75
2022/03/10 05:56:28;;;;;;;2.20;1.80;;;2.80;99.90;;;;;;6261841;28;20273;-74
2022/03/10 05:59:35;;;;;;;1.70;1.70;;;2.90;99.90;;;;;;6261780;28;20310;-74
2022/03/10 06:02:40;;;;;;;1.67;1.60;;;2.90;99.90;;;;;;6260670;28;20284;-74
2022/03/10 06:05:46;;;;;;;2.83;1.70;;;2.90;99.90;;;;;;6261406;28;20470;-74
2022/03/10 06:08:51;;;;;;;1.70;1.60;;;2.90;99.90;;;;;;6273188;28;20305;-75
2022/03/10 06:11:56;;;;;;;1.80;1.70;;;2.90;99.90;;;;;;6309980;28;20272;-74
2022/03/10 06:15:06;;;;;;;1.80;1.67;;;3.00;99.90;;;;;;6310262;28;20272;-74
2022/03/10 06:18:15;;;;;;;1.87;1.40;;;3.00;99.90;;;;;;6312355;28;20300;-74
2022/03/10 06:21:21;;;;;;;1.70;1.60;;;3.00;99.90;;;;;;6314595;28;20275;-75
2022/03/10 06:24:26;;;;;;;1.70;1.60;;;3.00;99.90;;;;;;6315094;28;20338;-74
2022/03/10 06:27:32;;;;;;;2.00;1.90;;;3.10;99.90;;;;;;6314214;28;20290;-74
2022/03/10 06:30:39;;;;;;;4.57;1.63;;;3.10;99.90;;;;;;6314586;28;20559;-75
2022/03/10 06:33:44;;;;;;;1.60;1.50;;;3.20;99.90;;;;;;6314482;28;20546;-75
2022/03/10 06:36:49;;;;;;;5.53;2.43;;;3.20;99.90;;;;;;6314702;28;20272;-74
2022/03/10 06:39:55;;;;;;;1.20;1.20;;;3.20;99.90;;;;;;6314014;28;20296;-74
2022/03/10 06:43:00;;;;;;;1.50;1.50;;;3.30;99.90;;;;;;6313976;28;20456;-74
2022/03/10 06:46:07;;;;;;;1.73;1.63;;;3.30;99.90;;;;;;6314242;28;20270;-74
2022/03/10 06:49:14;;;;;;;2.50;1.53;;;3.40;99.90;;;;;;6313177;28;20473;-74
2022/03/10 06:52:20;;;;;;;2.40;1.63;;;3.40;99.90;;;;;;6312775;28;20472;-74
2022/03/10 06:55:25;;;;;;;3.23;1.50;;;3.50;99.90;;;;;;6313501;28;20272;-73
2022/03/10 06:58:31;;;;;;;2.27;1.50;;;3.40;99.90;;;;;;6313263;28;20309;-73
2022/03/10 07:01:37;;;;;;;1.90;1.43;;;3.40;99.90;;;;;;6313238;28;20268;-74
2022/03/10 07:04:43;;;;;;;1.50;1.40;;;3.50;99.90;;;;;;6313636;28;20298;-74
2022/03/10 07:07:48;;;;;;;1.87;1.70;;;3.50;99.90;;;;;;6312193;28;20312;-75
2022/03/10 07:10:59;;;;;;;3.80;1.70;;;3.60;99.90;;;;;;6294981;28;20298;-74
2022/03/10 07:14:05;;;;;;;3.60;1.70;;;3.60;99.90;;;;;;6287562;28;20301;-74
2022/03/10 07:17:12;;;;;;;2.00;1.90;;;3.70;99.90;;;;;;6288156;28;20316;-74
2022/03/10 07:20:18;;;;;;;7.17;2.03;;;3.70;99.90;;;;;;6288004;28;20389;-74
2022/03/10 07:23:23;;;;;;;2.17;2.00;;;3.80;99.90;;;;;;6287808;28;20308;-74
2022/03/10 07:26:29;;;;;;;2.17;2.00;;;3.80;99.90;;;;;;6288815;28;20468;-74
2022/03/10 07:29:34;;;;;;;3.23;2.10;;;3.70;99.90;;;;;;6286896;28;20305;-74
2022/03/10 07:32:41;;;;;;;8.67;2.20;;;3.70;99.90;;;;;;6287351;28;20298;-74
2022/03/10 07:35:46;;;;;;;4.97;2.67;;;3.70;99.90;;;;;;6287916;28;20308;-74
2022/03/10 07:38:52;;;;;;;2.30;2.23;;;3.80;99.90;;;;;;6287582;28;20301;-75
2022/03/10 07:41:57;;;;;;;3.57;2.10;;;3.90;99.90;;;;;;6287696;28;20549;-75
2022/03/10 07:45:02;;;;;;;4.23;2.30;;;4.00;99.90;;;;;;6287989;28;20566;-74
2022/03/10 07:48:13;;;;;;;1.97;1.90;;;4.00;99.90;;;;;;6287256;28;20297;-75
2022/03/10 07:51:19;;;;;;;2.53;2.43;;;4.00;99.90;;;;;;6286985;28;20274;-75
2022/03/10 07:54:25;;;;;;;9.03;2.40;;;4.00;99.90;;;;;;6287667;28;20309;-74
2022/03/10 07:57:30;;;;;;;3.53;2.27;;;4.10;99.90;;;;;;6286788;28;20311;-74
2022/03/10 08:00:36;;;;;;;5.40;2.40;;;4.10;99.90;;;;;;6287131;28;20314;-75
2022/03/10 08:03:47;;;;;;;2.27;2.17;;;4.10;99.90;;;;;;6287084;28;20293;-75
2022/03/10 08:06:52;;;;;;;5.13;2.50;;;4.20;99.90;;;;;;6287075;28;20270;-76
2022/03/10 08:09:57;;;;;;;3.17;2.67;;;4.10;99.90;;;;;;6287913;28;20303;-76
2022/03/10 08:13:02;;;;;;;3.97;2.60;;;4.20;99.90;;;;;;6287037;28;20609;-75
2022/03/10 08:16:08;;;;;;;5.40;2.60;;;4.20;99.90;;;;;;6287405;28;20274;-75
2022/03/10 08:19:16;;;;;;;6.37;3.03;;;4.30;99.90;;;;;;6287369;28;20302;-75
2022/03/10 08:22:24;;;;;;;6.00;2.73;;;4.30;99.90;;;;;;6286983;28;20299;-75
2022/03/10 08:25:30;;;;;;;9.80;2.80;;;4.20;99.90;;;;;;6287057;28;20334;-76
2022/03/10 08:28:36;;;;;;;6.40;3.07;;;4.20;99.90;;;;;;6287022;28;20381;-75
2022/03/10 08:31:42;;;;;;;3.07;2.87;;;4.20;99.90;;;;;;6287438;28;20279;-75
2022/03/10 08:34:48;;;;;;;3.23;2.97;;;4.20;99.90;;;;;;6287343;28;20571;-75
2022/03/10 08:37:53;;;;;;;8.20;2.70;;;4.20;99.90;;;;;;6286589;28;20290;-75
2022/03/10 08:41:00;;;;;;;6.97;3.30;;;4.20;99.90;;;;;;6287245;28;20573;-75
2022/03/10 08:44:05;;;;;;;6.10;3.03;;;4.20;99.90;;;;;;6286218;28;20590;-75
2022/03/10 08:47:11;;;;;;;3.40;2.60;;;4.30;99.90;;;;;;6285666;28;20311;-75
2022/03/10 08:50:18;;;;;;;3.37;3.13;;;4.20;99.90;;;;;;6286765;28;20275;-75
2022/03/10 08:53:23;;;;;;;2.80;2.60;;;4.30;99.90;;;;;;6286667;28;20297;-75
2022/03/10 08:56:29;;;;;;;7.80;2.63;;;4.30;99.90;;;;;;6286342;28;20277;-75
2022/03/10 08:59:34;;;;;;;7.97;2.90;;;4.30;99.90;;;;;;6286199;28;20478;-75
2022/03/10 09:02:41;;;;;;;2.50;2.30;;;4.40;99.90;;;;;;6286276;28;20293;-75
2022/03/10 09:05:48;;;;;;;9.33;2.40;;;4.40;99.90;;;;;;6285764;28;20278;-75
2022/03/10 09:08:53;;;;;;;4.53;2.70;;;4.50;99.90;;;;;;6285745;28;20307;-75
2022/03/10 09:11:58;;;;;;;3.93;2.77;;;4.40;99.90;;;;;;6306954;28;20266;-76
2022/03/10 09:15:04;;;;;;;2.50;2.40;;;4.30;99.90;;;;;;6310601;28;20273;-75
2022/03/10 09:18:14;;;;;;;5.13;3.10;;;4.50;99.90;;;;;;6310513;28;20304;-75
2022/03/10 09:21:20;;;;;;;4.33;3.13;;;4.40;99.90;;;;;;6310786;28;20292;-76
2022/03/10 09:24:26;;;;;;;9.07;3.10;;;4.30;99.90;;;;;;6310591;28;20297;-75
2022/03/10 09:27:31;;;;;;;7.20;3.00;;;4.30;99.90;;;;;;6310470;28;20293;-75
2022/03/10 09:30:37;;;;;;;3.33;3.00;;;4.30;99.90;;;;;;6311597;28;20277;-79
2022/03/10 09:33:45;;;;;;;7.10;2.90;;;4.40;99.90;;;;;;6310776;28;20552;-75
2022/03/10 09:36:51;;;;;;;4.53;2.87;;;4.50;99.90;;;;;;6310659;28;20271;-75
2022/03/10 09:39:57;;;;;;;5.67;3.10;;;4.40;99.90;;;;;;6309617;28;20277;-75
2022/03/10 09:43:02;;;;;;;5.87;2.90;;;4.40;99.90;;;;;;6310278;28;20298;-75
2022/03/10 09:46:09;;;;;;;5.60;2.77;;;4.50;99.90;;;;;;6310991;28;20276;-75
2022/03/10 09:49:16;;;;;;;3.53;3.23;;;4.50;99.90;;;;;;6310465;28;20309;-75
2022/03/10 09:52:25;;;;;;;5.00;2.80;;;4.50;99.90;;;;;;6312025;28;20294;-75
2022/03/10 09:55:30;;;;;;;4.67;2.60;;;4.40;99.90;;;;;;6315467;28;20271;-75
2022/03/10 09:58:36;;;;;;;6.83;2.77;;;4.60;99.90;;;;;;6315295;28;20369;-75
2022/03/10 10:01:41;;;;;;;4.00;3.60;;;4.60;99.90;;;;;;6315356;28;20482;-75
2022/03/10 10:04:48;;;;;;;6.60;3.10;;;4.70;99.90;;;;;;6315677;28;20295;-78
2022/03/10 10:08:05;;;;;;;6.03;2.90;;;4.70;99.90;;;;;;6315081;28;20437;-75
2022/03/10 10:11:15;;;;;;;4.27;3.10;;;4.80;99.90;;;;;;6250372;28;20273;-75
2022/03/10 10:14:36;;;;;;;4.47;2.80;;;4.80;99.90;;;;;;6240191;28;20297;-75
2022/03/10 10:17:41;;;;;;;4.10;3.00;;;4.80;99.90;;;;;;6240321;28;20476;-75
2022/03/10 10:21:10;;;;;;;10.40;3.60;;;4.80;99.90;;;;;;6241260;28;20293;-75
2022/03/10 10:24:18;;;;;;;11.87;2.97;;;4.80;99.90;;;;;;6240060;28;20303;-75
2022/03/10 10:27:28;;;;;;;5.33;3.30;;;5.00;99.90;;;;;;6240241;28;20294;-76
2022/03/10 10:30:35;;;;;;;3.37;3.03;;;4.90;99.90;;;;;;6240904;28;20273;-75
2022/03/10 10:33:44;;;;;;;5.57;3.00;;;4.90;99.90;;;;;;6232752;28;20307;-75
2022/03/10 10:36:52;;;;;;;3.70;3.20;;;4.80;99.90;;;;;;6240789;28;20285;-75
2022/03/10 10:39:58;;;;;;;3.07;2.87;;;5.00;99.90;;;;;;6239570;28;20280;-75
2022/03/10 10:43:04;;;;;;;8.37;3.10;;;4.90;99.90;;;;;;6239310;28;20303;-76
2022/03/10 10:46:32;;;;;;;3.57;3.27;;;4.80;99.90;;;;;;6240538;28;20273;-75
2022/03/10 10:49:37;;;;;;;9.67;3.60;;;4.80;99.90;;;;;;6239970;28;20462;-75
2022/03/10 10:52:42;;;;;;;3.57;3.27;;;4.70;99.90;;;;;;6239633;28;20454;-74
2022/03/10 10:55:49;;;;;;;4.77;3.33;;;4.70;99.90;;;;;;6239573;28;20277;-75
2022/03/10 10:58:55;;;;;;;9.33;2.80;;;4.70;99.90;;;;;;6239821;28;20297;-74
2022/03/10 11:02:09;;;;;;;8.43;3.20;;;4.80;99.90;;;;;;6239525;28;20289;-75
2022/03/10 11:05:14;;;;;;;4.63;3.03;;;4.70;99.90;;;;;;6239767;28;20456;-75
2022/03/10 11:08:20;;;;;;;7.97;3.40;;;4.80;99.90;;;;;;6238462;28;20303;-76
2022/03/10 11:11:28;;;;;;;6.30;3.53;;;4.70;99.90;;;;;;6239379;28;20271;-75
2022/03/10 11:14:33;;;;;;;5.67;3.80;;;4.80;99.90;;;;;;6238837;28;20295;-76
2022/03/10 11:17:38;;;;;;;13.77;4.23;;;4.80;99.90;;;;;;6239325;28;20305;-75
2022/03/10 11:20:49;;;;;;;6.33;3.37;;;4.70;99.90;;;;;;6240071;28;20295;-75
2022/03/10 11:24:06;;;;;;;4.63;3.07;;;4.90;99.90;;;;;;6238902;28;20308;-75
2022/03/10 11:27:17;;;;;;;2.70;2.50;;;4.90;99.90;;;;;;6239232;28;20332;-75
2022/03/10 11:30:25;;;;;;;4.07;2.97;;;4.80;99.90;;;;;;6221873;28;20275;-76
2022/03/10 11:33:31;;;;;;;14.60;2.97;;;4.60;99.90;;;;;;6238576;28;20461;-75
2022/03/10 11:36:37;;;;;;;3.47;3.00;;;4.60;99.90;;;;;;6238445;28;20275;-75
2022/03/10 11:39:54;;;;;;;8.30;3.20;;;4.70;99.90;;;;;;6239621;28;20584;-76
2022/03/10 11:43:02;;;;;;;8.03;2.93;;;4.60;99.90;;;;;;6239467;28;20309;-75
2022/03/10 11:46:18;;;;;;;11.50;3.13;;;4.60;99.90;;;;;;6238586;28;20460;-74
2022/03/10 11:49:28;;;;;;;3.27;3.00;;;4.60;99.90;;;;;;6238085;28;20305;-75
2022/03/10 11:52:42;;;;;;;6.50;3.17;;;4.50;99.90;;;;;;6238349;28;20301;-75
2022/03/10 11:55:52;;;;;;;7.23;3.33;;;4.60;99.90;;;;;;6238998;28;20280;-75
2022/03/10 11:59:17;;;;;;;2.90;2.60;;;4.60;99.90;;;;;;6238373;28;20420;-75
2022/03/10 12:02:46;;;;;;;7.47;3.23;;;4.80;99.90;;;;;;6238165;28;20301;-75
2022/03/10 12:05:55;;;;;;;8.60;3.00;;;4.70;99.90;;;;;;6238411;28;20279;-75
2022/03/10 12:09:06;;;;;;;2.73;2.53;;;4.60;99.90;;;;;;6237794;28;20309;-75
2022/03/10 12:12:14;;;;;;;4.67;2.90;;;4.50;99.90;;;;;;6237668;28;20300;-76
2022/03/10 12:15:42;;;;;;;6.80;2.90;;;4.70;99.90;;;;;;6230331;28;20268;-75
2022/03/10 12:18:48;;;;;;;4.83;2.20;;;4.60;99.90;;;;;;6237977;28;20467;-75
2022/03/10 12:21:57;;;;;;;4.73;2.70;;;4.50;99.90;;;;;;6238022;28;20263;-76
2022/03/10 12:25:18;;;;;;;2.80;2.60;;;4.70;99.90;;;;;;6238846;28;20276;-75
2022/03/10 12:28:27;;;;;;;2.73;2.53;;;4.60;99.90;;;;;;6237592;28;20476;-76
2022/03/10 12:31:35;;;;;;;3.87;2.33;;;4.60;99.90;;;;;;6237369;28;20275;-75
2022/03/10 12:34:40;;;;;;;4.43;2.23;;;4.60;99.90;;;;;;6237400;28;20307;-75
2022/03/10 12:37:48;;;;;;;7.77;2.33;;;4.60;99.90;;;;;;6237227;28;20304;-76
2022/03/10 12:40:55;;;;;;;4.70;2.10;;;4.60;99.90;;;;;;6237938;28;20447;-75
2022/03/10 12:44:02;;;;;;;4.93;2.30;;;4.60;99.90;;;;;;6235769;28;20303;-75
2022/03/10 12:47:11;;;;;;;8.17;2.30;;;4.60;99.90;;;;;;6237302;28;20268;-75
2022/03/10 12:50:17;;;;;;;2.50;2.20;;;4.50;99.90;;;;;;6237272;28;20553;-76
2022/03/10 12:53:22;;;;;;;6.67;2.90;;;4.50;99.90;;;;;;6237078;28;20301;-75
2022/03/10 12:56:28;;;;;;;9.17;2.57;;;4.40;99.90;;;;;;6237516;28;20275;-75
2022/03/10 12:59:34;;;;;;;5.07;2.17;;;4.40;99.90;;;;;;6237309;28;20303;-75
2022/03/10 13:02:41;;;;;;;3.43;2.30;;;4.40;99.90;;;;;;6228459;28;20304;-75
2022/03/10 13:05:46;;;;;;;11.33;2.70;;;4.40;99.90;;;;;;6236467;28;20279;-75
2022/03/10 13:08:54;;;;;;;9.07;2.67;;;4.40;99.90;;;;;;6236530;28;20309;-75
2022/03/10 13:11:59;;;;;;;8.53;2.53;;;4.30;99.90;;;;;;6215359;28;20271;-75
2022/03/10 13:15:07;;;;;;;7.27;2.50;;;4.30;99.90;;;;;;6212736;28;20285;-75
2022/03/10 13:18:18;;;;;;;3.50;2.13;;;4.30;99.90;;;;;;6212552;28;20297;-75
2022/03/10 13:21:24;;;;;;;8.57;2.40;;;4.50;99.90;;;;;;6212456;28;20280;-76
2022/03/10 13:24:41;;;;;;;3.90;2.33;;;4.50;99.90;;;;;;6211917;28;20581;-75
2022/03/10 13:27:49;;;;;;;9.50;2.40;;;4.40;99.90;;;;;;6213281;28;20298;-75
2022/03/10 13:30:56;;;;;;;6.00;2.27;;;4.40;99.90;;;;;;6217590;28;20277;-75
2022/03/10 13:34:03;;;;;;;6.83;2.23;;;4.40;99.90;;;;;;6217124;28;20591;-75
2022/03/10 13:37:11;;;;;;;3.93;2.80;;;4.40;99.90;;;;;;6216372;28;20296;-75
2022/03/10 13:40:18;;;;;;;7.10;2.40;;;4.50;99.90;;;;;;6217738;28;20541;-75
2022/03/10 13:43:26;;;;;;;7.00;2.23;;;4.40;99.90;;;;;;6216685;28;20475;-75
2022/03/10 13:46:33;;;;;;;3.30;2.10;;;4.30;99.90;;;;;;6217896;28;20273;-76
2022/03/10 13:49:45;;;;;;;3.70;2.17;;;4.30;99.90;;;;;;6216989;28;20305;-75
2022/03/10 13:52:53;;;;;;;3.33;2.27;;;4.20;99.90;;;;;;6216252;28;20299;-75
2022/03/10 13:55:59;;;;;;;4.63;2.50;;;4.20;99.90;;;;;;6217224;28;20269;-75
2022/03/10 13:59:07;;;;;;;5.30;2.40;;;4.30;99.90;;;;;;6216521;28;20297;-75
2022/03/10 14:02:21;;;;;;;2.63;2.40;;;4.30;99.90;;;;;;6216882;28;20305;-76
2022/03/10 14:05:28;;;;;;;5.10;2.17;;;4.10;99.90;;;;;;6216985;28;20296;-75
2022/03/10 14:08:36;;;;;;;4.33;2.50;;;4.10;99.90;;;;;;6216380;28;20317;-75
2022/03/10 14:11:42;;;;;;;6.87;2.53;;;3.90;99.90;;;;;;6251591;28;20267;-75
2022/03/10 14:14:49;;;;;;;5.23;2.80;;;3.90;99.90;;;;;;6265020;28;20307;-75
2022/03/10 14:17:58;;;;;;;4.83;3.10;;;3.90;99.90;;;;;;6265262;28;20299;-76
2022/03/10 14:21:07;;;;;;;6.73;2.60;;;4.00;99.90;;;;;;6265703;28;20271;-75
2022/03/10 14:24:13;;;;;;;9.83;2.57;;;3.90;99.90;;;;;;6264799;28;20297;-75
2022/03/10 14:27:18;;;;;;;3.00;2.50;;;4.00;99.90;;;;;;6265415;28;20323;-76
2022/03/10 14:30:27;;;;;;;2.80;2.60;;;4.00;99.90;;;;;;6265263;28;20275;-75
2022/03/10 14:33:34;;;;;;;4.20;2.50;;;3.90;99.90;;;;;;6264566;28;20299;-75
2022/03/10 14:36:40;;;;;;;2.57;2.20;;;3.90;99.90;;;;;;6265008;28;20287;-75
2022/03/10 14:39:45;;;;;;;4.53;2.60;;;3.90;99.90;;;;;;6263771;28;20305;-75
2022/03/10 14:42:54;;;;;;;3.03;2.73;;;4.00;99.90;;;;;;6264468;28;20369;-75
2022/03/10 14:45:59;;;;;;;13.30;3.00;;;4.00;99.90;;;;;;6264777;28;20294;-75
2022/03/10 14:49:06;;;;;;;2.87;2.57;;;4.00;99.90;;;;;;6264062;28;20299;-75
2022/03/10 14:52:17;;;;;;;5.43;2.83;;;4.00;99.90;;;;;;6264867;28;20306;-75
2022/03/10 14:55:23;;;;;;;3.23;2.93;;;3.90;99.90;;;;;;6264690;28;20557;-75
2022/03/10 14:58:28;;;;;;;11.93;3.50;;;4.00;99.90;;;;;;6264133;28;20298;-76
2022/03/10 15:01:33;;;;;;;3.67;3.07;;;4.00;99.90;;;;;;6264883;28;20571;-75
2022/03/10 15:04:39;;;;;;;8.63;2.80;;;4.00;99.90;;;;;;6264415;28;20462;-75
2022/03/10 15:07:46;;;;;;;2.93;2.70;;;4.10;99.90;;;;;;6263868;28;20294;-75
2022/03/10 15:10:51;;;;;;;8.23;2.87;;;4.00;99.90;;;;;;6283905;28;20302;-75
2022/03/10 15:13:56;;;;;;;6.50;3.10;;;4.00;99.90;;;;;;6288734;28;20314;-75
2022/03/10 15:17:01;;;;;;;8.03;3.10;;;3.90;99.90;;;;;;6287803;28;20277;-75
2022/03/10 15:20:09;;;;;;;3.03;2.70;;;3.80;99.90;;;;;;6288178;28;20290;-76
2022/03/10 15:23:19;;;;;;;10.77;3.37;;;3.80;99.90;;;;;;6287723;28;20310;-75
2022/03/10 15:26:25;;;;;;;5.47;2.40;;;3.70;99.90;;;;;;6288609;28;20295;-75
2022/03/10 15:29:32;;;;;;;3.57;2.57;;;3.60;99.90;;;;;;6288053;28;20302;-75
2022/03/10 15:32:38;;;;;;;5.87;3.33;;;3.50;99.90;;;;;;6288161;28;20293;-75
2022/03/10 15:35:44;;;;;;;11.03;2.73;;;3.50;99.90;;;;;;6288790;28;20293;-74
2022/03/10 15:38:55;;;;;;;5.03;2.70;;;3.30;99.90;;;;;;6287607;28;20385;-75
2022/03/10 15:42:02;;;;;;;4.80;2.37;;;3.30;99.90;;;;;;6287327;28;20273;-75
2022/03/10 15:45:10;;;;;;;4.93;2.83;;;3.30;99.90;;;;;;6287675;28;20453;-75
2022/03/10 15:48:17;;;;;;;8.93;2.80;;;3.30;99.90;;;;;;6288103;28;20309;-75
2022/03/10 15:51:26;;;;;;;7.20;3.00;;;3.20;99.90;;;;;;6287368;28;20274;-75
2022/03/10 15:54:33;;;;;;;5.13;2.63;;;3.20;99.90;;;;;;6287748;28;20303;-75
2022/03/10 15:57:43;;;;;;;5.60;2.80;;;3.20;99.90;;;;;;6287219;28;20475;-75
2022/03/10 16:00:49;;;;;;;4.03;2.90;;;3.10;99.90;;;;;;6287516;28;20518;-75
2022/03/10 16:03:55;;;;;;;3.73;2.93;;;3.10;99.90;;;;;;6287489;28;20292;-75
2022/03/10 16:07:00;;;;;;;2.70;2.60;;;3.00;99.90;;;;;;6286569;28;20293;-75
2022/03/10 16:10:08;;;;;;;6.43;2.97;;;3.00;99.90;;;;;;6287851;28;20305;-75
2022/03/10 16:13:16;;;;;;;5.67;3.40;;;2.90;99.90;;;;;;6286882;28;20296;-75
2022/03/10 16:16:23;;;;;;;8.47;3.00;;;2.90;99.90;;;;;;6287783;28;20312;-75
2022/03/10 16:19:28;;;;;;;5.53;3.30;;;2.80;99.90;;;;;;6286558;28;20308;-75
2022/03/10 16:22:34;;;;;;;8.17;3.10;;;2.80;99.90;;;;;;6286881;28;20293;-75
2022/03/10 16:25:40;;;;;;;14.30;4.50;;;2.80;99.90;;;;;;6287872;28;20292;-76
2022/03/10 16:28:46;;;;;;;4.60;3.50;;;2.70;99.90;;;;;;6287401;28;20304;-75
2022/03/10 16:31:51;;;;;;;6.77;3.47;;;2.60;99.90;;;;;;6287421;28;20567;-75
2022/03/10 16:34:57;;;;;;;4.17;3.07;;;2.60;99.90;;;;;;6285665;28;20278;-75